sensor_id;sensor_type;location;lat;lon;timestamp;P1;durP1;ratioP1;P2;durP2;ratioP2
40993;SDS011;26722;43.212;27.932;2023-01-31T00:00:53;63.25;;;24.92;;
40993;SDS011;26722;43.212;27.932;2023-01-31T00:03:19;60.92;;;24.88;;
40993;SDS011;26722;43.212;27.932;2023-01-31T00:05:44;63.08;;;23.77;;
40993;SDS011;26722;43.212;27.932;2023-01-31T00:08:10;57.90;;;22.58;;
40993;SDS011;26722;43.212;27.932;2023-01-31T00:10:36;57.60;;;21.55;;
40993;SDS011;26722;43.212;27.932;2023-01-31T00:13:02;55.65;;;20.23;;
40993;SDS011;26722;43.212;27.932;2023-01-31T00:15:27;56.67;;;20.67;;
40993;SDS011;26722;43.212;27.932;2023-01-31T00:17:53;53.60;;;21.85;;
40993;SDS011;26722;43.212;27.932;2023-01-31T00:20:19;52.72;;;20.65;;
40993;SDS011;26722;43.212;27.932;2023-01-31T00:22:44;54.65;;;19.70;;
40993;SDS011;26722;43.212;27.932;2023-01-31T00:25:10;44.10;;;16.88;;
40993;SDS011;26722;43.212;27.932;2023-01-31T00:27:35;53.35;;;18.00;;
40993;SDS011;26722;43.212;27.932;2023-01-31T00:30:00;49.50;;;19.27;;
40993;SDS011;26722;43.212;27.932;2023-01-31T00:32:26;52.67;;;18.33;;
40993;SDS011;26722;43.212;27.932;2023-01-31T00:34:52;51.45;;;19.38;;
40993;SDS011;26722;43.212;27.932;2023-01-31T00:37:19;41.80;;;16.98;;
40993;SDS011;26722;43.212;27.932;2023-01-31T00:39:45;46.17;;;18.77;;
40993;SDS011;26722;43.212;27.932;2023-01-31T00:42:10;46.13;;;18.63;;
40993;SDS011;26722;43.212;27.932;2023-01-31T00:44:35;42.13;;;16.48;;
40993;SDS011;26722;43.212;27.932;2023-01-31T00:47:01;46.22;;;17.08;;
40993;SDS011;26722;43.212;27.932;2023-01-31T00:49:26;44.00;;;17.88;;
40993;SDS011;26722;43.212;27.932;2023-01-31T00:51:52;44.72;;;17.85;;
40993;SDS011;26722;43.212;27.932;2023-01-31T00:54:17;45.50;;;18.58;;
40993;SDS011;26722;43.212;27.932;2023-01-31T00:56:43;44.72;;;17.83;;
40993;SDS011;26722;43.212;27.932;2023-01-31T00:59:09;44.80;;;17.30;;
40993;SDS011;26722;43.212;27.932;2023-01-31T01:01:35;47.63;;;18.85;;
40993;SDS011;26722;43.212;27.932;2023-01-31T01:04:00;48.25;;;18.92;;
40993;SDS011;26722;43.212;27.932;2023-01-31T01:06:26;45.22;;;17.90;;
40993;SDS011;26722;43.212;27.932;2023-01-31T01:08:52;42.22;;;17.83;;
40993;SDS011;26722;43.212;27.932;2023-01-31T01:11:20;46.08;;;20.02;;
40993;SDS011;26722;43.212;27.932;2023-01-31T01:13:45;48.08;;;18.48;;
40993;SDS011;26722;43.212;27.932;2023-01-31T01:16:12;49.35;;;19.02;;
40993;SDS011;26722;43.212;27.932;2023-01-31T01:18:40;51.75;;;18.75;;
40993;SDS011;26722;43.212;27.932;2023-01-31T01:21:09;49.15;;;19.27;;
40993;SDS011;26722;43.212;27.932;2023-01-31T01:23:37;59.35;;;23.80;;
40993;SDS011;26722;43.212;27.932;2023-01-31T01:26:04;65.05;;;27.80;;
40993;SDS011;26722;43.212;27.932;2023-01-31T01:28:33;66.97;;;29.02;;
40993;SDS011;26722;43.212;27.932;2023-01-31T01:31:03;56.03;;;24.65;;
40993;SDS011;26722;43.212;27.932;2023-01-31T01:33:30;53.75;;;23.60;;
40993;SDS011;26722;43.212;27.932;2023-01-31T01:35:59;54.08;;;23.90;;
40993;SDS011;26722;43.212;27.932;2023-01-31T01:38:28;58.05;;;23.15;;
40993;SDS011;26722;43.212;27.932;2023-01-31T01:40:53;52.90;;;22.58;;
40993;SDS011;26722;43.212;27.932;2023-01-31T01:43:19;55.75;;;22.75;;
40993;SDS011;26722;43.212;27.932;2023-01-31T01:45:44;50.85;;;21.42;;
40993;SDS011;26722;43.212;27.932;2023-01-31T01:48:11;48.15;;;20.85;;
40993;SDS011;26722;43.212;27.932;2023-01-31T01:50:43;48.85;;;20.88;;
40993;SDS011;26722;43.212;27.932;2023-01-31T01:53:19;51.30;;;21.58;;
40993;SDS011;26722;43.212;27.932;2023-01-31T01:55:52;52.40;;;20.17;;
40993;SDS011;26722;43.212;27.932;2023-01-31T01:58:26;51.05;;;21.17;;
40993;SDS011;26722;43.212;27.932;2023-01-31T02:00:56;50.97;;;20.38;;
40993;SDS011;26722;43.212;27.932;2023-01-31T02:03:22;49.35;;;19.65;;
40993;SDS011;26722;43.212;27.932;2023-01-31T02:08:18;47.45;;;19.75;;
40993;SDS011;26722;43.212;27.932;2023-01-31T02:10:52;44.92;;;18.92;;
40993;SDS011;26722;43.212;27.932;2023-01-31T02:13:19;46.17;;;19.48;;
40993;SDS011;26722;43.212;27.932;2023-01-31T02:15:46;50.85;;;20.20;;
40993;SDS011;26722;43.212;27.932;2023-01-31T02:18:12;46.45;;;19.40;;
40993;SDS011;26722;43.212;27.932;2023-01-31T02:47:26;58.53;;;23.13;;
40993;SDS011;26722;43.212;27.932;2023-01-31T02:50:32;55.67;;;23.67;;
40993;SDS011;26722;43.212;27.932;2023-01-31T02:53:24;59.28;;;24.63;;
40993;SDS011;26722;43.212;27.932;2023-01-31T02:59:12;56.60;;;23.88;;
40993;SDS011;26722;43.212;27.932;2023-01-31T03:01:46;48.60;;;19.47;;
40993;SDS011;26722;43.212;27.932;2023-01-31T03:04:19;62.05;;;26.33;;
40993;SDS011;26722;43.212;27.932;2023-01-31T03:06:54;67.70;;;27.67;;
40993;SDS011;26722;43.212;27.932;2023-01-31T03:09:29;63.85;;;27.77;;
40993;SDS011;26722;43.212;27.932;2023-01-31T03:14:51;64.07;;;27.15;;
40993;SDS011;26722;43.212;27.932;2023-01-31T03:23:10;71.18;;;28.10;;
40993;SDS011;26722;43.212;27.932;2023-01-31T03:25:48;64.53;;;26.95;;
40993;SDS011;26722;43.212;27.932;2023-01-31T03:28:16;64.05;;;27.85;;
40993;SDS011;26722;43.212;27.932;2023-01-31T03:31:04;63.90;;;28.27;;
40993;SDS011;26722;43.212;27.932;2023-01-31T03:33:32;66.63;;;28.45;;
40993;SDS011;26722;43.212;27.932;2023-01-31T03:36:13;65.25;;;28.17;;
40993;SDS011;26722;43.212;27.932;2023-01-31T03:38:55;72.70;;;29.33;;
40993;SDS011;26722;43.212;27.932;2023-01-31T03:41:41;70.32;;;29.17;;
40993;SDS011;26722;43.212;27.932;2023-01-31T03:46:49;68.85;;;28.58;;
40993;SDS011;26722;43.212;27.932;2023-01-31T03:49:19;70.82;;;29.25;;
40993;SDS011;26722;43.212;27.932;2023-01-31T03:51:49;71.90;;;30.15;;
40993;SDS011;26722;43.212;27.932;2023-01-31T03:54:23;74.78;;;30.25;;
40993;SDS011;26722;43.212;27.932;2023-01-31T03:57:04;72.75;;;30.13;;
40993;SDS011;26722;43.212;27.932;2023-01-31T03:59:37;71.72;;;29.92;;
40993;SDS011;26722;43.212;27.932;2023-01-31T04:02:06;65.15;;;27.90;;
40993;SDS011;26722;43.212;27.932;2023-01-31T04:04:40;72.07;;;29.42;;
40993;SDS011;26722;43.212;27.932;2023-01-31T04:07:11;67.63;;;26.77;;
40993;SDS011;26722;43.212;27.932;2023-01-31T04:09:37;66.60;;;27.58;;
40993;SDS011;26722;43.212;27.932;2023-01-31T04:12:03;67.50;;;27.30;;
40993;SDS011;26722;43.212;27.932;2023-01-31T04:14:29;73.45;;;29.48;;
40993;SDS011;26722;43.212;27.932;2023-01-31T04:16:54;61.10;;;27.60;;
40993;SDS011;26722;43.212;27.932;2023-01-31T04:19:20;67.25;;;28.13;;
40993;SDS011;26722;43.212;27.932;2023-01-31T04:21:46;64.57;;;28.58;;
40993;SDS011;26722;43.212;27.932;2023-01-31T04:24:11;68.05;;;28.95;;
40993;SDS011;26722;43.212;27.932;2023-01-31T04:26:37;65.55;;;28.52;;
40993;SDS011;26722;43.212;27.932;2023-01-31T04:29:02;62.53;;;27.55;;
40993;SDS011;26722;43.212;27.932;2023-01-31T04:31:28;68.57;;;27.63;;
40993;SDS011;26722;43.212;27.932;2023-01-31T04:33:54;69.97;;;27.92;;
40993;SDS011;26722;43.212;27.932;2023-01-31T04:36:22;65.32;;;29.75;;
40993;SDS011;26722;43.212;27.932;2023-01-31T04:38:48;81.72;;;30.33;;
40993;SDS011;26722;43.212;27.932;2023-01-31T04:41:13;69.18;;;28.63;;
40993;SDS011;26722;43.212;27.932;2023-01-31T04:43:39;69.20;;;29.27;;
40993;SDS011;26722;43.212;27.932;2023-01-31T04:46:04;62.33;;;27.42;;
40993;SDS011;26722;43.212;27.932;2023-01-31T04:48:30;63.92;;;27.20;;
40993;SDS011;26722;43.212;27.932;2023-01-31T04:50:55;58.35;;;26.05;;
40993;SDS011;26722;43.212;27.932;2023-01-31T04:53:21;67.22;;;28.17;;
40993;SDS011;26722;43.212;27.932;2023-01-31T04:55:46;67.88;;;29.00;;
40993;SDS011;26722;43.212;27.932;2023-01-31T04:58:12;71.18;;;29.25;;
40993;SDS011;26722;43.212;27.932;2023-01-31T05:00:37;77.70;;;30.55;;
40993;SDS011;26722;43.212;27.932;2023-01-31T05:03:03;70.70;;;30.98;;
40993;SDS011;26722;43.212;27.932;2023-01-31T05:05:28;76.47;;;32.25;;
40993;SDS011;26722;43.212;27.932;2023-01-31T05:07:54;90.97;;;34.92;;
40993;SDS011;26722;43.212;27.932;2023-01-31T05:10:19;77.43;;;33.03;;
40993;SDS011;26722;43.212;27.932;2023-01-31T05:12:45;83.78;;;33.78;;
40993;SDS011;26722;43.212;27.932;2023-01-31T05:15:11;91.57;;;39.95;;
40993;SDS011;26722;43.212;27.932;2023-01-31T05:17:36;112.38;;;46.25;;
40993;SDS011;26722;43.212;27.932;2023-01-31T05:20:02;112.15;;;47.70;;
40993;SDS011;26722;43.212;27.932;2023-01-31T05:22:28;115.55;;;48.85;;
40993;SDS011;26722;43.212;27.932;2023-01-31T05:24:54;124.95;;;53.60;;
40993;SDS011;26722;43.212;27.932;2023-01-31T05:27:19;126.65;;;53.63;;
40993;SDS011;26722;43.212;27.932;2023-01-31T05:29:45;138.70;;;57.58;;
40993;SDS011;26722;43.212;27.932;2023-01-31T05:32:10;120.88;;;52.75;;
40993;SDS011;26722;43.212;27.932;2023-01-31T05:34:37;122.60;;;50.88;;
40993;SDS011;26722;43.212;27.932;2023-01-31T05:37:03;122.15;;;50.58;;
40993;SDS011;26722;43.212;27.932;2023-01-31T05:39:28;109.90;;;46.75;;
40993;SDS011;26722;43.212;27.932;2023-01-31T05:41:54;113.18;;;45.60;;
40993;SDS011;26722;43.212;27.932;2023-01-31T05:44:20;107.78;;;45.03;;
40993;SDS011;26722;43.212;27.932;2023-01-31T05:46:46;95.40;;;41.67;;
40993;SDS011;26722;43.212;27.932;2023-01-31T05:49:12;92.53;;;42.05;;
40993;SDS011;26722;43.212;27.932;2023-01-31T05:51:38;88.15;;;39.95;;
40993;SDS011;26722;43.212;27.932;2023-01-31T05:54:04;91.88;;;40.25;;
40993;SDS011;26722;43.212;27.932;2023-01-31T05:56:30;88.40;;;39.42;;
40993;SDS011;26722;43.212;27.932;2023-01-31T05:58:55;80.72;;;35.13;;
40993;SDS011;26722;43.212;27.932;2023-01-31T06:01:24;82.70;;;35.83;;
40993;SDS011;26722;43.212;27.932;2023-01-31T06:03:51;87.72;;;35.55;;
40993;SDS011;26722;43.212;27.932;2023-01-31T06:06:17;88.55;;;35.67;;
40993;SDS011;26722;43.212;27.932;2023-01-31T06:08:43;81.22;;;34.42;;
40993;SDS011;26722;43.212;27.932;2023-01-31T06:11:09;84.15;;;36.60;;
40993;SDS011;26722;43.212;27.932;2023-01-31T06:13:36;85.85;;;33.15;;
40993;SDS011;26722;43.212;27.932;2023-01-31T06:16:02;82.78;;;35.30;;
40993;SDS011;26722;43.212;27.932;2023-01-31T06:18:28;66.97;;;25.48;;
40993;SDS011;26722;43.212;27.932;2023-01-31T06:20:53;86.20;;;34.70;;
40993;SDS011;26722;43.212;27.932;2023-01-31T06:23:19;93.30;;;37.90;;
40993;SDS011;26722;43.212;27.932;2023-01-31T06:25:51;74.07;;;30.67;;
40993;SDS011;26722;43.212;27.932;2023-01-31T06:28:18;92.28;;;37.38;;
40993;SDS011;26722;43.212;27.932;2023-01-31T06:30:43;92.07;;;39.03;;
40993;SDS011;26722;43.212;27.932;2023-01-31T06:33:09;95.35;;;37.95;;
40993;SDS011;26722;43.212;27.932;2023-01-31T06:35:36;93.25;;;38.08;;
40993;SDS011;26722;43.212;27.932;2023-01-31T06:38:02;87.13;;;36.95;;
40993;SDS011;26722;43.212;27.932;2023-01-31T06:40:27;95.22;;;38.03;;
40993;SDS011;26722;43.212;27.932;2023-01-31T06:42:54;83.22;;;35.55;;
40993;SDS011;26722;43.212;27.932;2023-01-31T06:45:20;94.43;;;37.40;;
40993;SDS011;26722;43.212;27.932;2023-01-31T06:47:46;91.82;;;38.08;;
40993;SDS011;26722;43.212;27.932;2023-01-31T06:50:11;85.45;;;34.85;;
40993;SDS011;26722;43.212;27.932;2023-01-31T06:52:40;97.95;;;37.72;;
40993;SDS011;26722;43.212;27.932;2023-01-31T06:55:06;93.72;;;37.83;;
40993;SDS011;26722;43.212;27.932;2023-01-31T06:57:32;91.68;;;37.42;;
40993;SDS011;26722;43.212;27.932;2023-01-31T06:59:58;90.80;;;37.65;;
40993;SDS011;26722;43.212;27.932;2023-01-31T07:02:23;88.22;;;36.63;;
40993;SDS011;26722;43.212;27.932;2023-01-31T07:04:49;93.60;;;38.85;;
40993;SDS011;26722;43.212;27.932;2023-01-31T07:07:15;91.45;;;35.63;;
40993;SDS011;26722;43.212;27.932;2023-01-31T07:09:41;91.43;;;38.03;;
40993;SDS011;26722;43.212;27.932;2023-01-31T07:12:06;87.10;;;36.00;;
40993;SDS011;26722;43.212;27.932;2023-01-31T07:14:32;93.18;;;35.13;;
40993;SDS011;26722;43.212;27.932;2023-01-31T07:16:57;99.55;;;37.40;;
40993;SDS011;26722;43.212;27.932;2023-01-31T07:19:23;88.68;;;34.55;;
40993;SDS011;26722;43.212;27.932;2023-01-31T07:21:48;89.60;;;35.67;;
40993;SDS011;26722;43.212;27.932;2023-01-31T07:24:14;90.18;;;35.70;;
40993;SDS011;26722;43.212;27.932;2023-01-31T07:26:40;90.05;;;33.80;;
40993;SDS011;26722;43.212;27.932;2023-01-31T07:29:06;92.60;;;36.03;;
40993;SDS011;26722;43.212;27.932;2023-01-31T07:31:31;82.43;;;34.67;;
40993;SDS011;26722;43.212;27.932;2023-01-31T07:33:57;79.00;;;32.05;;
40993;SDS011;26722;43.212;27.932;2023-01-31T07:36:22;81.90;;;33.40;;
40993;SDS011;26722;43.212;27.932;2023-01-31T07:38:53;78.90;;;31.48;;
40993;SDS011;26722;43.212;27.932;2023-01-31T07:41:20;85.10;;;35.35;;
40993;SDS011;26722;43.212;27.932;2023-01-31T07:43:46;86.15;;;36.35;;
40993;SDS011;26722;43.212;27.932;2023-01-31T07:46:11;89.45;;;35.22;;
40993;SDS011;26722;43.212;27.932;2023-01-31T07:48:37;87.93;;;35.65;;
40993;SDS011;26722;43.212;27.932;2023-01-31T07:51:02;88.63;;;35.47;;
40993;SDS011;26722;43.212;27.932;2023-01-31T07:53:29;90.53;;;37.45;;
40993;SDS011;26722;43.212;27.932;2023-01-31T07:56:09;93.45;;;38.67;;
40993;SDS011;26722;43.212;27.932;2023-01-31T07:58:36;91.35;;;37.00;;
40993;SDS011;26722;43.212;27.932;2023-01-31T08:01:02;92.47;;;38.17;;
40993;SDS011;26722;43.212;27.932;2023-01-31T08:03:47;77.70;;;32.50;;
40993;SDS011;26722;43.212;27.932;2023-01-31T08:06:13;76.80;;;32.10;;
40993;SDS011;26722;43.212;27.932;2023-01-31T08:08:39;74.75;;;31.85;;
40993;SDS011;26722;43.212;27.932;2023-01-31T08:11:05;70.22;;;30.23;;
40993;SDS011;26722;43.212;27.932;2023-01-31T08:13:31;68.90;;;30.63;;
40993;SDS011;26722;43.212;27.932;2023-01-31T08:15:57;71.07;;;31.77;;
40993;SDS011;26722;43.212;27.932;2023-01-31T08:18:23;69.78;;;30.02;;
40993;SDS011;26722;43.212;27.932;2023-01-31T08:20:49;69.93;;;29.05;;
40993;SDS011;26722;43.212;27.932;2023-01-31T08:23:14;69.95;;;29.70;;
40993;SDS011;26722;43.212;27.932;2023-01-31T08:25:40;68.78;;;30.25;;
40993;SDS011;26722;43.212;27.932;2023-01-31T08:28:06;71.38;;;30.02;;
40993;SDS011;26722;43.212;27.932;2023-01-31T08:30:31;65.35;;;29.67;;
40993;SDS011;26722;43.212;27.932;2023-01-31T08:32:57;64.53;;;26.60;;
40993;SDS011;26722;43.212;27.932;2023-01-31T08:35:24;66.13;;;28.35;;
40993;SDS011;26722;43.212;27.932;2023-01-31T08:37:50;65.40;;;28.20;;
40993;SDS011;26722;43.212;27.932;2023-01-31T08:40:17;62.67;;;27.15;;
40993;SDS011;26722;43.212;27.932;2023-01-31T08:42:42;64.20;;;27.33;;
40993;SDS011;26722;43.212;27.932;2023-01-31T08:45:08;61.40;;;25.75;;
40993;SDS011;26722;43.212;27.932;2023-01-31T08:47:34;59.78;;;26.38;;
40993;SDS011;26722;43.212;27.932;2023-01-31T08:50:00;61.10;;;26.15;;
40993;SDS011;26722;43.212;27.932;2023-01-31T08:52:26;59.92;;;25.27;;
40993;SDS011;26722;43.212;27.932;2023-01-31T08:54:51;58.40;;;24.70;;
40993;SDS011;26722;43.212;27.932;2023-01-31T08:57:17;60.35;;;24.83;;
40993;SDS011;26722;43.212;27.932;2023-01-31T08:59:44;50.47;;;22.45;;
40993;SDS011;26722;43.212;27.932;2023-01-31T09:02:10;46.25;;;19.92;;
40993;SDS011;26722;43.212;27.932;2023-01-31T09:04:36;53.38;;;21.10;;
40993;SDS011;26722;43.212;27.932;2023-01-31T09:07:01;57.25;;;24.63;;
40993;SDS011;26722;43.212;27.932;2023-01-31T09:09:26;58.60;;;26.98;;
40993;SDS011;26722;43.212;27.932;2023-01-31T09:11:55;43.90;;;20.58;;
40993;SDS011;26722;43.212;27.932;2023-01-31T09:14:20;47.13;;;21.00;;
40993;SDS011;26722;43.212;27.932;2023-01-31T09:16:46;48.88;;;21.52;;
40993;SDS011;26722;43.212;27.932;2023-01-31T09:19:11;45.47;;;19.85;;
40993;SDS011;26722;43.212;27.932;2023-01-31T09:21:37;42.80;;;18.27;;
40993;SDS011;26722;43.212;27.932;2023-01-31T09:24:02;48.00;;;21.00;;
40993;SDS011;26722;43.212;27.932;2023-01-31T09:26:28;47.03;;;20.02;;
40993;SDS011;26722;43.212;27.932;2023-01-31T09:28:55;41.70;;;19.05;;
40993;SDS011;26722;43.212;27.932;2023-01-31T09:31:22;46.55;;;18.98;;
40993;SDS011;26722;43.212;27.932;2023-01-31T09:33:48;38.92;;;18.33;;
40993;SDS011;26722;43.212;27.932;2023-01-31T09:36:15;36.63;;;15.55;;
40993;SDS011;26722;43.212;27.932;2023-01-31T09:38:42;39.22;;;18.08;;
40993;SDS011;26722;43.212;27.932;2023-01-31T09:43:54;35.00;;;13.63;;
40993;SDS011;26722;43.212;27.932;2023-01-31T09:46:24;36.30;;;15.90;;
40993;SDS011;26722;43.212;27.932;2023-01-31T09:48:56;36.88;;;16.48;;
40993;SDS011;26722;43.212;27.932;2023-01-31T09:51:24;37.50;;;14.65;;
40993;SDS011;26722;43.212;27.932;2023-01-31T09:53:50;42.30;;;18.33;;
40993;SDS011;26722;43.212;27.932;2023-01-31T10:01:45;37.83;;;16.25;;
40993;SDS011;26722;43.212;27.932;2023-01-31T10:07:23;38.97;;;17.15;;
40993;SDS011;26722;43.212;27.932;2023-01-31T10:12:58;40.83;;;16.83;;
40993;SDS011;26722;43.212;27.932;2023-01-31T10:15:53;31.20;;;13.20;;
40993;SDS011;26722;43.212;27.932;2023-01-31T10:18:27;38.72;;;17.20;;
40993;SDS011;26722;43.212;27.932;2023-01-31T10:20:57;32.53;;;13.52;;
40993;SDS011;26722;43.212;27.932;2023-01-31T10:23:34;37.28;;;16.20;;
40993;SDS011;26722;43.212;27.932;2023-01-31T10:26:08;44.53;;;16.52;;
40993;SDS011;26722;43.212;27.932;2023-01-31T10:28:46;33.90;;;14.32;;
40993;SDS011;26722;43.212;27.932;2023-01-31T10:39:32;20.85;;;8.70;;
40993;SDS011;26722;43.212;27.932;2023-01-31T10:44:40;34.00;;;13.52;;
40993;SDS011;26722;43.212;27.932;2023-01-31T10:47:12;34.33;;;14.77;;
40993;SDS011;26722;43.212;27.932;2023-01-31T10:49:40;33.20;;;12.70;;
40993;SDS011;26722;43.212;27.932;2023-01-31T10:52:19;37.17;;;14.70;;
40993;SDS011;26722;43.212;27.932;2023-01-31T10:55:14;32.88;;;13.43;;
40993;SDS011;26722;43.212;27.932;2023-01-31T10:57:42;34.55;;;15.68;;
40993;SDS011;26722;43.212;27.932;2023-01-31T11:00:13;34.97;;;15.88;;
40993;SDS011;26722;43.212;27.932;2023-01-31T11:02:45;38.97;;;15.88;;
40993;SDS011;26722;43.212;27.932;2023-01-31T11:05:13;33.42;;;15.13;;
40993;SDS011;26722;43.212;27.932;2023-01-31T11:07:43;31.77;;;15.20;;
40993;SDS011;26722;43.212;27.932;2023-01-31T11:10:25;32.75;;;14.68;;
40993;SDS011;26722;43.212;27.932;2023-01-31T11:15:26;33.05;;;13.75;;
40993;SDS011;26722;43.212;27.932;2023-01-31T11:17:56;28.30;;;13.07;;
40993;SDS011;26722;43.212;27.932;2023-01-31T11:20:26;30.80;;;13.07;;
40993;SDS011;26722;43.212;27.932;2023-01-31T11:22:56;29.10;;;12.48;;
40993;SDS011;26722;43.212;27.932;2023-01-31T11:25:23;21.15;;;8.88;;
40993;SDS011;26722;43.212;27.932;2023-01-31T11:27:56;31.80;;;13.45;;
40993;SDS011;26722;43.212;27.932;2023-01-31T11:30:26;30.08;;;11.75;;
40993;SDS011;26722;43.212;27.932;2023-01-31T11:32:52;26.90;;;10.90;;
40993;SDS011;26722;43.212;27.932;2023-01-31T11:35:22;28.33;;;13.40;;
40993;SDS011;26722;43.212;27.932;2023-01-31T11:40:26;22.50;;;10.07;;
40993;SDS011;26722;43.212;27.932;2023-01-31T11:43:01;14.57;;;7.50;;
40993;SDS011;26722;43.212;27.932;2023-01-31T11:47:56;25.65;;;11.73;;
40993;SDS011;26722;43.212;27.932;2023-01-31T11:53:25;28.48;;;10.73;;
40993;SDS011;26722;43.212;27.932;2023-01-31T11:55:54;23.10;;;11.30;;
40993;SDS011;26722;43.212;27.932;2023-01-31T11:58:23;28.20;;;13.05;;
40993;SDS011;26722;43.212;27.932;2023-01-31T12:00:57;28.90;;;12.77;;
40993;SDS011;26722;43.212;27.932;2023-01-31T12:03:25;21.63;;;9.60;;
40993;SDS011;26722;43.212;27.932;2023-01-31T12:06:01;34.80;;;13.40;;
40993;SDS011;26722;43.212;27.932;2023-01-31T12:08:38;21.45;;;9.38;;
40993;SDS011;26722;43.212;27.932;2023-01-31T12:13:45;27.38;;;12.88;;
40993;SDS011;26722;43.212;27.932;2023-01-31T12:16:23;25.73;;;11.38;;
40993;SDS011;26722;43.212;27.932;2023-01-31T12:29:32;19.13;;;9.15;;
40993;SDS011;26722;43.212;27.932;2023-01-31T12:32:42;25.70;;;12.50;;
40993;SDS011;26722;43.212;27.932;2023-01-31T12:35:20;25.98;;;12.32;;
40993;SDS011;26722;43.212;27.932;2023-01-31T13:05:06;21.48;;;9.80;;
40993;SDS011;26722;43.212;27.932;2023-01-31T13:07:59;25.13;;;11.50;;
40993;SDS011;26722;43.212;27.932;2023-01-31T13:10:37;19.95;;;9.57;;
40993;SDS011;26722;43.212;27.932;2023-01-31T13:13:08;21.90;;;10.82;;
40993;SDS011;26722;43.212;27.932;2023-01-31T13:15:42;20.08;;;8.68;;
40993;SDS011;26722;43.212;27.932;2023-01-31T13:18:11;23.45;;;11.77;;
40993;SDS011;26722;43.212;27.932;2023-01-31T13:20:43;22.13;;;10.07;;
40993;SDS011;26722;43.212;27.932;2023-01-31T13:23:20;20.95;;;9.90;;
40993;SDS011;26722;43.212;27.932;2023-01-31T13:26:15;17.85;;;7.80;;
40993;SDS011;26722;43.212;27.932;2023-01-31T13:31:42;23.27;;;11.15;;
40993;SDS011;26722;43.212;27.932;2023-01-31T13:36:50;15.07;;;7.28;;
40993;SDS011;26722;43.212;27.932;2023-01-31T13:39:22;19.38;;;11.23;;
40993;SDS011;26722;43.212;27.932;2023-01-31T13:41:52;21.52;;;10.73;;
40993;SDS011;26722;43.212;27.932;2023-01-31T13:44:18;19.77;;;10.52;;
40993;SDS011;26722;43.212;27.932;2023-01-31T13:49:36;23.88;;;10.13;;
40993;SDS011;26722;43.212;27.932;2023-01-31T13:52:09;19.27;;;9.65;;
40993;SDS011;26722;43.212;27.932;2023-01-31T13:54:58;25.85;;;10.27;;
40993;SDS011;26722;43.212;27.932;2023-01-31T13:57:33;24.55;;;11.05;;
40993;SDS011;26722;43.212;27.932;2023-01-31T14:13:39;20.63;;;9.95;;
40993;SDS011;26722;43.212;27.932;2023-01-31T14:40:26;16.20;;;8.45;;
40993;SDS011;26722;43.212;27.932;2023-01-31T14:45:55;19.33;;;9.52;;
40993;SDS011;26722;43.212;27.932;2023-01-31T14:48:34;20.67;;;11.15;;
40993;SDS011;26722;43.212;27.932;2023-01-31T14:57:32;22.85;;;10.57;;
40993;SDS011;26722;43.212;27.932;2023-01-31T15:00:14;18.65;;;8.27;;
40993;SDS011;26722;43.212;27.932;2023-01-31T15:05:24;18.38;;;8.82;;
40993;SDS011;26722;43.212;27.932;2023-01-31T15:08:01;18.75;;;9.90;;
40993;SDS011;26722;43.212;27.932;2023-01-31T15:13:57;18.02;;;9.20;;
40993;SDS011;26722;43.212;27.932;2023-01-31T15:16:26;12.88;;;7.18;;
40993;SDS011;26722;43.212;27.932;2023-01-31T15:21:48;18.23;;;9.13;;
40993;SDS011;26722;43.212;27.932;2023-01-31T15:24:18;24.58;;;10.77;;
40993;SDS011;26722;43.212;27.932;2023-01-31T15:26:49;20.92;;;10.10;;
40993;SDS011;26722;43.212;27.932;2023-01-31T15:29:26;21.80;;;9.85;;
40993;SDS011;26722;43.212;27.932;2023-01-31T15:31:59;24.10;;;10.63;;
40993;SDS011;26722;43.212;27.932;2023-01-31T15:37:05;18.10;;;9.13;;
40993;SDS011;26722;43.212;27.932;2023-01-31T15:39:43;19.02;;;8.75;;
40993;SDS011;26722;43.212;27.932;2023-01-31T15:44:50;19.80;;;9.68;;
40993;SDS011;26722;43.212;27.932;2023-01-31T15:47:41;10.93;;;5.90;;
40993;SDS011;26722;43.212;27.932;2023-01-31T15:50:17;13.30;;;6.95;;
40993;SDS011;26722;43.212;27.932;2023-01-31T15:52:45;18.60;;;9.35;;
40993;SDS011;26722;43.212;27.932;2023-01-31T15:55:11;15.18;;;8.40;;
40993;SDS011;26722;43.212;27.932;2023-01-31T15:57:46;12.60;;;6.88;;
40993;SDS011;26722;43.212;27.932;2023-01-31T16:00:19;13.63;;;7.10;;
40993;SDS011;26722;43.212;27.932;2023-01-31T16:02:46;15.20;;;7.78;;
40993;SDS011;26722;43.212;27.932;2023-01-31T16:05:12;11.10;;;5.72;;
40993;SDS011;26722;43.212;27.932;2023-01-31T16:07:45;12.18;;;4.40;;
40993;SDS011;26722;43.212;27.932;2023-01-31T16:10:12;12.10;;;6.90;;
40993;SDS011;26722;43.212;27.932;2023-01-31T16:12:40;15.35;;;7.72;;
40993;SDS011;26722;43.212;27.932;2023-01-31T16:15:13;11.07;;;6.00;;
40993;SDS011;26722;43.212;27.932;2023-01-31T16:17:42;12.38;;;6.18;;
40993;SDS011;26722;43.212;27.932;2023-01-31T16:23:16;9.77;;;5.25;;
40993;SDS011;26722;43.212;27.932;2023-01-31T16:25:58;10.05;;;5.18;;
40993;SDS011;26722;43.212;27.932;2023-01-31T16:28:37;13.13;;;6.03;;
40993;SDS011;26722;43.212;27.932;2023-01-31T16:31:10;12.93;;;6.50;;
40993;SDS011;26722;43.212;27.932;2023-01-31T16:33:38;12.98;;;6.95;;
40993;SDS011;26722;43.212;27.932;2023-01-31T16:36:21;11.82;;;5.47;;
40993;SDS011;26722;43.212;27.932;2023-01-31T16:38:56;14.73;;;7.97;;
40993;SDS011;26722;43.212;27.932;2023-01-31T16:41:38;7.32;;;4.38;;
40993;SDS011;26722;43.212;27.932;2023-01-31T16:44:18;13.55;;;6.03;;
40993;SDS011;26722;43.212;27.932;2023-01-31T16:46:47;11.43;;;6.22;;
40993;SDS011;26722;43.212;27.932;2023-01-31T16:49:21;14.52;;;7.25;;
40993;SDS011;26722;43.212;27.932;2023-01-31T16:52:08;12.57;;;6.15;;
40993;SDS011;26722;43.212;27.932;2023-01-31T16:54:43;12.32;;;6.47;;
40993;SDS011;26722;43.212;27.932;2023-01-31T16:57:19;11.10;;;6.38;;
40993;SDS011;26722;43.212;27.932;2023-01-31T16:59:49;10.82;;;5.85;;
40993;SDS011;26722;43.212;27.932;2023-01-31T17:02:23;10.52;;;5.25;;
40993;SDS011;26722;43.212;27.932;2023-01-31T17:04:52;13.18;;;6.93;;
40993;SDS011;26722;43.212;27.932;2023-01-31T17:07:30;11.77;;;5.03;;
40993;SDS011;26722;43.212;27.932;2023-01-31T17:10:01;11.80;;;5.97;;
40993;SDS011;26722;43.212;27.932;2023-01-31T17:12:31;11.77;;;5.18;;
40993;SDS011;26722;43.212;27.932;2023-01-31T17:14:58;13.18;;;7.18;;
40993;SDS011;26722;43.212;27.932;2023-01-31T17:17:25;9.55;;;5.35;;
40993;SDS011;26722;43.212;27.932;2023-01-31T17:19:52;15.23;;;8.13;;
40993;SDS011;26722;43.212;27.932;2023-01-31T17:22:17;8.40;;;4.90;;
40993;SDS011;26722;43.212;27.932;2023-01-31T17:24:44;13.43;;;6.68;;
40993;SDS011;26722;43.212;27.932;2023-01-31T17:27:13;13.88;;;6.93;;
40993;SDS011;26722;43.212;27.932;2023-01-31T17:29:40;11.40;;;6.25;;
40993;SDS011;26722;43.212;27.932;2023-01-31T17:32:11;12.38;;;6.75;;
40993;SDS011;26722;43.212;27.932;2023-01-31T17:34:41;12.40;;;6.05;;
40993;SDS011;26722;43.212;27.932;2023-01-31T17:37:09;11.60;;;6.20;;